Pagrindinis puslapis
METAR-TAF:

METAR-TAF

Oro uostai :

Maputu, Mozambikas

platuma: 25-55S, ilguma: 032-34E, Aukštis: 39 m

Dabartinis oras

Ataskaita buvo paskelbta 9 minutes, ne 02:00 UTC
Vėjas 4 kt iš Šiaurės
Temperatūra 18°C
Drėgmė 88%
Slėgis 1019 hPa
Matomumas 10 km arba daugiau
nėra debesų žemiau 1500 m ir nėra kamuolinių lietaus debesų

METAR: FQMA 220200Z 35004KT CAVOK 18/16 Q1019 NOSIG

Laikas: 04:09 (02:09 UTC)

Prognozė

Ataskaita buvo paskelbta 4 valandos ir 9 minutes, ne 22:00 UTC
Prognozė galioja nuo 22 metu 00 UTC su 23 metu 06 UTC
Vėjas 2 kt nuo kintamojo kryptimis
Matomumas 10 km arba daugiau
nėra debesų žemiau 1500 m ir nėra kamuolinių lietaus debesų
Tapsmas
nuo 22 metu 06 UTC su 22 metu 08 UTC
Vėjas 10 kt iš Šiaurės/Šiaurės Vakarų
Tapsmas
nuo 22 metu 12 UTC su 22 metu 14 UTC
Vėjas 8 kt iš Šiaurės Rytų

TAF: FQMA 212200Z 2200/2306 VRB02KT CAVOK TX30/2212Z TN19/2203Z BECMG 2206/2208 33010KT BECMG 2212/2214 04008KT

Orai ataskaitas ir orų prognozės (METAR, TAF).

turimą stotys yra geltonos ir raudonos taškus žemėlapyje.

Perkelti pele per norėdami pamatyti stoties vardą.

Tada spustelėkite, norėdami matyti oro stebėjimo ir prognozės.

Norėdami pakeisti žemėlapį: spustelėkite ant žalios mygtukų su juodo kryžiaus žemyn,; žalią mygtuką su brūkšneliu, jei norite nutolinti; arba žalių rodyklių gretimoms žemėlapius.


METAR-TAF: